• Join FlightAware (Why Join?)
  • Login
  • US Flag 
10:34AM EDT


 

Airport Tracker/Info


-or-


 

Live Flight TrackerFlight Track Log ✈ LXJ342 ✈ 02-May-2013 ✈ KSFO - KLEB

Flight Track Log - Related Links

Times and Time Zones

All times are in EDT time to prevent confusion due to time zone crossing. See the LXJ342 flight status page for this flight to view local times or setup timezone preferences in your user account.

Time Position Orientation Groundspeed Altitude Reporting Facility
EDT Latitude Longitude Course Direction KTS MPH feet Rate Location/Type
05:14PM 37.6500 -122.3333 38° Northeast 186 214 2,600  Level Northern Cal TRACON
05:15PM 37.7000 -122.2833 38° Northeast 227 261 6,000 2,700 Climbing Northern Cal TRACON
05:15PM 37.7006 -122.2672 87° East 224 258 6,400 2,220 Climbing Oakland Center
05:16PM 37.7761 -122.2683 359° North 267 307 8,900 2,940 Climbing Oakland Center
05:17PM 37.8756 -122.2578 North 315 362 12,500 2,580 Climbing Oakland Center
05:19PM 37.9044 -122.1500 71° East 338 389 14,300 1,980 Climbing Oakland Center
05:20PM 37.9228 -122.0269 79° East 353 406 16,600 2,100 Climbing Oakland Center
05:21PM 37.9436 -121.8961 79° East 375 432 18,700 2,040 Climbing Oakland Center
05:22PM 37.9628 -121.7631 80° East 384 442 20,800 1,560 Climbing Oakland Center
05:23PM 37.9836 -121.6250 79° East 397 457 22,000 1,560 Climbing Oakland Center
05:24PM 38.0072 -121.4708 79° East 411 473 24,000 1,740 Climbing Oakland Center
05:25PM 38.0550 -121.3381 65° Northeast 415 478 25,600 1,260 Climbing Oakland Center
05:26PM 38.1075 -121.2036 64° Northeast 426 490 26,700 780 Climbing Oakland Center
05:27PM 38.1414 -121.0522 74° East 452 520 27,200 720 Climbing Oakland Center
05:28PM 38.1719 -120.8914 76° East 469 540 28,200 960 Climbing Oakland Center
05:29PM 38.2122 -120.6953 75° East 480 552 29,200 840 Climbing Oakland Center
05:30PM 38.2444 -120.5311 76° East 482 555 30,000 1,140 Climbing Oakland Center
05:31PM 38.2772 -120.3667 76° East 483 556 31,600 1,140 Climbing Oakland Center
05:32PM 38.3094 -120.2053 76° East 474 545 32,400 840 Climbing Oakland Center
05:33PM 38.3389 -120.0442 77° East 469 540 33,400 900 Climbing Oakland Center
05:34PM 38.3708 -119.8831 76° East 470 541 34,300 900 Climbing Oakland Center
05:35PM 38.4006 -119.7242 77° East 465 535 35,300 840 Climbing Oakland Center
05:36PM 38.4339 -119.5419 77° East 460 529 36,100 780 Climbing Oakland Center
05:37PM 38.4628 -119.3842 77° East 460 529 36,900 420 Climbing Oakland Center
05:38PM 38.4933 -119.2272 76° East 459 528 37,000 120 Climbing Oakland Center
05:39PM 38.5164 -119.0619 80° East 473 544 37,200 240 Climbing Oakland Center
05:40PM 38.5314 -118.8919 84° East 482 555 37,600 420 Climbing Oakland Center
05:41PM 38.5483 -118.7233 83° East 483 556 38,100 480 Climbing Oakland Center
05:42PM 38.5644 -118.5567 83° East 478 550 38,600 420 Climbing Oakland Center
05:43PM 38.5833 -118.3586 83° East 472 543 39,000 180 Climbing Oakland Center
05:44PM 38.5997 -118.1908 83° East 476 548 39,000  Level Oakland Center
05:45PM 38.6136 -118.0406 83° East 479 551 39,000  Level Oakland Center
05:46PM 38.6292 -117.8683 83° East 485 558 39,000  Level Oakland Center
05:47PM 38.6486 -117.6606 83° East 488 562 39,000  Level Oakland Center
05:48PM 38.6639 -117.4861 84° East 489 563 39,000  Level Oakland Center
05:49PM 38.6781 -117.3100 84° East 493 567 39,000  Level Oakland Center
05:49PM 38.6819 -117.2756 82° East 493 567 39,000  Level Salt Lake Center
05:50PM 38.7083 -117.1028 79° East 492 566 39,000  Level Salt Lake Center
05:51PM 38.7297 -116.9647 79° East 492 566 39,000  Level Oakland Center
05:52PM 38.7542 -116.7922 80° East 490 564 39,000  Level Oakland Center
05:53PM 38.7592 -116.7581 79° East 491 565 39,000  Level Salt Lake Center
05:53PM 38.7803 -116.6197 79° East 492 566 39,000  Level Oakland Center
05:54PM 38.8053 -116.4467 79° East 493 567 39,000  Level Oakland Center
05:55PM 38.8292 -116.2747 80° East 491 565 39,000  Level Oakland Center
05:56PM 38.8397 -116.2064 79° East 489 563 39,000  Level Salt Lake Center
05:57PM 38.8617 -116.0350 81° East 487 560 39,000  Level Salt Lake Center
05:58PM 38.8869 -115.8636 79° East 488 562 39,000  Level Salt Lake Center
05:59PM 38.9094 -115.6933 80° East 485 558 39,000  Level Salt Lake Center
06:00PM 38.9342 -115.5211 79° East 489 563 39,000  Level Salt Lake Center
06:01PM 38.9589 -115.3381 80° East 488 562 39,000  Level Salt Lake Center
06:02PM 38.9822 -115.1669 80° East 486 559 39,000  Level Salt Lake Center
06:03PM 39.0039 -114.9983 81° East 482 555 39,000  Level Salt Lake Center
06:04PM 39.0264 -114.8267 80° East 484 557 39,000  Level Salt Lake Center
06:05PM 39.0533 -114.6217 80° East 486 559 39,000  Level Salt Lake Center
06:06PM 39.0750 -114.4494 81° East 488 562 39,000  Level Salt Lake Center
06:07PM 39.0958 -114.2789 81° East 484 557 39,000  Level Salt Lake Center
06:08PM 39.1169 -114.1097 81° East 481 554 39,000  Level Salt Lake Center
06:09PM 39.1378 -113.9375 81° East 484 557 39,000  Level Salt Lake Center
06:10PM 39.1586 -113.7667 81° East 483 556 39,000  Level Salt Lake Center
06:11PM 39.1794 -113.5961 81° East 482 555 39,000  Level Salt Lake Center
06:12PM 39.1994 -113.4256 81° East 482 555 39,000  Level Salt Lake Center
06:13PM 39.2233 -113.2203 81° East 482 555 39,000  Level Salt Lake Center
06:14PM 39.2428 -113.0483 82° East 483 556 39,000  Level Salt Lake Center
06:15PM 39.2619 -112.8775 82° East 483 556 39,000  Level Salt Lake Center
06:16PM 39.2811 -112.7061 82° East 483 556 39,000  Level Salt Lake Center
06:17PM 39.3017 -112.5242 82° East 481 554 39,000  Level Salt Lake Center
06:18PM 39.3311 -112.3567 77° East 481 554 39,000  Level Salt Lake Center
06:19PM 39.3628 -112.1922 76° East 476 548 39,000  Level Salt Lake Center
06:20PM 39.3928 -112.0244 77° East 478 550 39,000  Level Salt Lake Center
06:21PM 39.4308 -111.8264 76° East 477 549 39,000  Level Salt Lake Center
06:22PM 39.4600 -111.6583 77° East 479 551 39,000  Level Salt Lake Center
06:23PM 39.4906 -111.4944 76° East 473 544 39,000  Level Salt Lake Center
06:24PM 39.5200 -111.3278 77° East 475 547 39,000  Level Salt Lake Center
06:26PM 39.5508 -111.1489 77° East 473 544 39,000  Level Salt Lake Center
06:27PM 39.5781 -110.9917 77° East 469 540 39,000  Level Salt Lake Center
06:28PM 39.6094 -110.8094 77° East 465 535 39,000  Level Salt Lake Center
06:29PM 39.6378 -110.6536 77° East 465 535 39,000  Level Salt Lake Center
06:30PM 39.6678 -110.4711 78° East 463 533 39,000  Level Salt Lake Center
06:31PM 39.6939 -110.3122 78° East 469 540 39,000  Level Salt Lake Center
06:32PM 39.7206 -110.1533 78° East 470 541 39,000  Level Salt Lake Center
06:33PM 39.7508 -109.9675 78° East 471 542 39,000  Level Salt Lake Center
06:34PM 39.7778 -109.8072 78° East 474 545 39,000  Level Salt Lake Center
06:35PM 39.8075 -109.6217 78° East 470 541 39,000  Level Salt Lake Center
06:36PM 39.8283 -109.4881 78° East 469 540 39,000  Level Denver Center
06:37PM 39.8531 -109.3283 79° East 469 540 39,000  Level Denver Center
06:38PM 39.8836 -109.1425 78° East 467 537 39,000  Level Denver Center
06:39PM 39.9125 -108.9567 78° East 469 540 39,000  Level Salt Lake Center
06:40PM 39.9431 -108.7700 78° East 468 539 39,000  Level Salt Lake Center
06:41PM 39.9664 -108.6086 79° East 469 540 39,000  Level Salt Lake Center
06:42PM 39.9908 -108.4447 79° East 474 545 39,000  Level Denver Center
06:43PM 40.0144 -108.2842 79° East 470 541 39,000  Level Denver Center
06:44PM 40.0389 -108.1214 79° East 474 545 39,000  Level Denver Center
06:45PM 40.0767 -107.9378 75° East 468 539 39,000  Level Denver Center
06:46PM 40.1131 -107.7831 73° East 467 537 39,000  Level Denver Center
06:47PM 40.1544 -107.6047 73° East 461 531 39,000  Level Denver Center
06:48PM 40.1889 -107.4533 73° East 454 522 39,000  Level Denver Center
06:49PM 40.2283 -107.2803 73° East 447 514 39,000  Level Denver Center
06:50PM 40.2622 -107.1331 73° East 442 509 39,000  Level Denver Center
06:51PM 40.3011 -106.9572 74° East 450 518 39,000  Level Denver Center
06:52PM 40.3369 -106.8036 73° East 455 524 39,000  Level Denver Center
06:53PM 40.3736 -106.6422 73° East 459 528 39,000  Level Denver Center
06:54PM 40.4117 -106.4697 74° East 462 532 39,000  Level Denver Center
06:55PM 40.4564 -106.2633 74° East 460 529 39,000  Level Denver Center
06:56PM 40.4906 -106.1083 74° East 456 525 39,000  Level Denver Center
06:58PM 40.5247 -105.9461 74° East 456 525 39,000  Level Denver Center
06:59PM 40.5594 -105.7833 74° East 458 527 39,000  Level Denver Center
07:00PM 40.5936 -105.6208 74° East 457 526 39,000  Level Denver Center
07:01PM 40.6286 -105.4542 74° East 462 532 39,000  Level Denver Center
07:02PM 40.6697 -105.2592 74° East 469 540 39,000  Level Denver Center
07:03PM 40.7039 -105.0944 75° East 464 534 39,000  Level Denver Center
07:04PM 40.7319 -104.9578 75° East 459 528 39,000  Level Denver Center
07:05PM 40.7722 -104.7597 75° East 469 540 39,000  Level Denver Center
07:06PM 40.8047 -104.5964 75° East 461 531 39,000  Level Denver Center
07:07PM 40.8386 -104.4303 75° East 464 534 39,000  Level Denver Center
07:08PM 40.8714 -104.2650 75° East 460 529 39,000  Level Denver Center
07:09PM 40.9036 -104.1003 75° East 459 528 39,000  Level Denver Center
07:10PM 40.9417 -103.9072 75° East 461 531 39,000  Level Denver Center
07:11PM 40.9736 -103.7422 76° East 460 529 39,000  Level Denver Center
07:12PM 41.0058 -103.5736 76° East 463 533 39,000  Level Denver Center
07:13PM 41.0361 -103.4164 76° East 462 532 39,000  Level Denver Center
07:14PM 41.0706 -103.2344 76° East 458 527 39,000  Level Denver Center
07:15PM 41.0942 -103.1064 76° East 453 521 39,000  Level Denver Center
07:16PM 41.1250 -102.9417 76° East 456 525 39,000  Level Denver Center
07:17PM 41.1633 -102.7319 76° East 459 528 39,000  Level Denver Center
07:18PM 41.1917 -102.5747 76° East 457 526 39,000  Level Denver Center
07:19PM 41.2253 -102.3897 76° East 461 531 39,000  Level Denver Center
07:20PM 41.2544 -102.2289 76° East 466 536 39,000  Level Denver Center
07:21PM 41.2875 -102.0397 77° East 470 541 39,000  Level Denver Center
07:22PM 41.3158 -101.8778 77° East 469 540 39,000  Level Denver Center
07:23PM 41.3456 -101.7167 76° East 468 539 39,000  Level Denver Center
07:24PM 41.3778 -101.5283 77° East 466 536 39,000  Level Denver Center
07:25PM 41.4050 -101.3667 77° East 467 537 39,000  Level Denver Center
07:26PM 41.4369 -101.1781 77° East 465 535 39,000  Level Denver Center
07:27PM 41.4636 -101.0175 77° East 463 533 39,000  Level Denver Center
07:29PM 41.4950 -100.8294 77° East 462 532 39,000  Level Denver Center
07:30PM 41.5267 -100.6406 77° East 463 533 39,000  Level Denver Center
07:31PM 41.5567 -100.4522 78° East 464 534 39,000  Level Denver Center
07:32PM 41.5836 -100.2903 77° East 465 535 39,000  Level Denver Center
07:33PM 41.6133 -100.1008 78° East 466 536 39,000  Level Denver Center
07:34PM 41.6383 -99.9375 78° East 467 537 39,000  Level Denver Center
07:35PM 41.6683 -99.7475 78° East 468 539 39,000  Level Denver Center
07:36PM 41.6944 -99.5761 78° East 471 542 39,000  Level Denver Center
07:37PM 41.7206 -99.4044 78° East 470 541 39,000  Level Denver Center
07:38PM 41.7469 -99.2325 78° East 469 540 39,000  Level Denver Center
07:39PM 41.7719 -99.0583 79° East 472 543 39,000  Level Denver Center
07:39PM 41.7825 -98.9889 78° East 472 543 39,000  Level Minneapolis Center
07:40PM 41.8086 -98.8164 78° East 472 543 39,000  Level Minneapolis Center
07:41PM 41.8336 -98.6428 79° East 472 543 39,000  Level Minneapolis Center
07:42PM 41.8581 -98.4694 79° East 471 542 39,000  Level Minneapolis Center
07:43PM 41.8831 -98.2950 79° East 473 544 39,000  Level Minneapolis Center
07:44PM 41.9086 -98.1106 79° East 475 547 39,000  Level Minneapolis Center
07:46PM 41.9339 -97.9358 79° East 476 548 39,000  Level Minneapolis Center
07:47PM 41.9569 -97.7597 80° East 478 550 39,000  Level Minneapolis Center
07:48PM 41.9811 -97.5844 79° East 478 550 39,000  Level Minneapolis Center
07:49PM 42.0044 -97.4097 80° East 476 548 39,000  Level Minneapolis Center
07:50PM 42.0278 -97.2344 80° East 475 547 39,000  Level Minneapolis Center
07:51PM 42.0506 -97.0589 80° East 475 547 39,000  Level Minneapolis Center
07:52PM 42.0767 -96.8494 80° East 473 544 39,000  Level Minneapolis Center
07:53PM 42.0992 -96.6747 80° East 473 544 39,000  Level Minneapolis Center
07:54PM 42.1169 -96.5333 80° East 475 547 39,000  Level Minneapolis Center
07:55PM 42.1433 -96.3197 80° East 479 551 39,000  Level Minneapolis Center
07:56PM 42.1647 -96.1411 81° East 482 555 39,000  Level Minneapolis Center
07:57PM 42.1872 -95.9600 80° East 486 559 39,000  Level Minneapolis Center
07:58PM 42.2089 -95.7800 81° East 485 558 39,000  Level Minneapolis Center
07:59PM 42.2256 -95.6322 81° East 493 567 39,000  Level Minneapolis Center
08:00PM 42.2467 -95.4472 81° East 497 572 39,000  Level Minneapolis Center
08:01PM 42.2758 -95.1931 81° East 489 563 39,000  Level Minneapolis Center
08:02PM 42.2967 -95.0117 81° East 488 562 39,000  Level Minneapolis Center
08:03PM 42.3164 -94.8292 82° East 489 563 39,000  Level Minneapolis Center
08:04PM 42.3361 -94.6475 82° East 490 564 39,000  Level Minneapolis Center
08:05PM 42.3544 -94.4617 82° East 496 571 39,000  Level Minneapolis Center
08:06PM 42.3781 -94.2422 82° East 492 566 39,000  Level Minneapolis Center
08:07PM 42.4006 -94.0303 82° East 492 566 39,000  Level Minneapolis Center
08:08PM 42.4183 -93.8494 82° East 490 564 39,000  Level Minneapolis Center
08:09PM 42.4361 -93.6731 82° East 479 551 39,000  Level Minneapolis Center
08:10PM 42.4542 -93.4961 82° East 478 550 39,000  Level Minneapolis Center
08:11PM 42.4706 -93.3203 83° East 477 549 39,000  Level Minneapolis Center
08:12PM 42.4869 -93.1419 83° East 480 552 39,000  Level Minneapolis Center
08:14PM 42.5075 -92.9308 82° East 475 547 39,000  Level Minneapolis Center
08:15PM 42.5233 -92.7547 83° East 475 547 39,000  Level Minneapolis Center
08:16PM 42.5386 -92.5772 83° East 476 548 39,000  Level Minneapolis Center
08:17PM 42.5556 -92.4003 83° East 478 550 39,000  Level Minneapolis Center
08:18PM 42.5814 -92.2231 79° East 480 552 39,000  Level Minneapolis Center
08:19PM 42.6197 -91.9811 78° East 477 549 39,000  Level Minneapolis Center
08:20PM 42.6447 -91.8125 79° East 468 539 39,000  Level Minneapolis Center
08:21PM 42.6758 -91.6003 79° East 472 543 39,000  Level Minneapolis Center
08:22PM 42.7042 -91.4094 79° East 469 540 39,000  Level Minneapolis Center
08:23PM 42.7289 -91.2400 79° East 465 535 39,000  Level Minneapolis Center
08:24PM 42.7544 -91.0694 78° East 468 539 39,000  Level Chicago Center
08:25PM 42.7789 -90.8961 79° East 471 542 39,000  Level Chicago Center
08:26PM 42.8042 -90.7244 79° East 468 539 39,000  Level Chicago Center
08:27PM 42.8278 -90.5497 80° East 470 541 39,000  Level Chicago Center
08:28PM 42.8553 -90.3417 80° East 471 542 39,000  Level Chicago Center
08:29PM 42.8800 -90.1669 79° East 473 544 39,000  Level Chicago Center
08:30PM 42.9025 -89.9922 80° East 473 544 39,000  Level Chicago Center
08:31PM 42.9272 -89.8044 80° East 471 542 39,000  Level Chicago Center
08:32PM 42.9514 -89.6272 79° East 475 547 39,000  Level Chicago Center
08:34PM 42.9736 -89.4497 80° East 475 547 39,000  Level Chicago Center
08:35PM 43.0000 -89.2414 80° East 479 551 39,000  Level Chicago Center
08:36PM 43.0222 -89.0625 80° East 479 551 39,000  Level Chicago Center
08:37PM 43.0444 -88.8858 80° East 477 549 39,000  Level Chicago Center
08:38PM 43.0656 -88.7086 81° East 474 545 39,000  Level Chicago Center
08:39PM 43.0875 -88.5336 80° East 472 543 39,000  Level Chicago Center
08:40PM 43.1106 -88.3311 81° East 466 536 39,000  Level Chicago Center
08:41PM 43.1233 -88.1567 84° East 465 535 39,000  Level Chicago Center
08:42PM 43.1308 -87.9819 87° East 463 533 39,000  Level Chicago Center
08:43PM 43.1392 -87.8078 86° East 461 531 39,000  Level Chicago Center
08:44PM 43.1486 -87.6006 86° East 469 540 39,000  Level Chicago Center
08:45PM 43.1553 -87.4242 87° East 465 535 39,000  Level Chicago Center
08:46PM 43.1636 -87.2525 86° East 468 539 39,000  Level Chicago Center
08:47PM 43.1708 -87.0744 87° East 468 539 39,000  Level Chicago Center
08:48PM 43.1772 -86.8969 87° East 468 539 39,000  Level Chicago Center
08:49PM 43.1844 -86.7217 87° East 462 532 39,000  Level Chicago Center
08:50PM 43.1911 -86.5100 87° East 464 534 39,000  Level Chicago Center
08:51PM 43.1981 -86.3336 87° East 462 532 39,000  Level Chicago Center
08:52PM 43.2042 -86.1544 87° East 466 536 39,000  Level Chicago Center
08:53PM 43.2094 -85.9733 88° East 466 536 39,000  Level Chicago Center
08:54PM 43.2142 -85.7939 88° East 464 534 39,000  Level Chicago Center
08:55PM 43.2189 -85.6164 88° East 463 533 39,000  Level Chicago Center
08:56PM 43.2225 -85.4419 88° East 459 528 39,000  Level Chicago Center
08:57PM 43.2244 -85.3589 88° East 458 527 39,000  Level Cleveland Center
08:58PM 43.2275 -85.1797 89° East 458 527 39,000  Level Cleveland Center
08:59PM 43.2319 -85.0089 88° East 458 527 39,000  Level Cleveland Center
09:00PM 43.2347 -84.8267 89° East 458 527 39,000  Level Cleveland Center
09:01PM 43.2367 -84.6528 89° East 458 527 39,000  Level Cleveland Center
09:02PM 43.2408 -84.4708 88° East 458 527 39,000  Level Cleveland Center
09:03PM 43.2425 -84.2969 89° East 463 533 39,000  Level Cleveland Center
09:04PM 43.2439 -84.1203 89° East 463 533 39,000  Level Cleveland Center
09:05PM 43.2475 -83.9267 88° East 457 526 39,000  Level Cleveland Center
09:06PM 43.2483 -83.7469 90° East 464 534 39,000  Level Cleveland Center
09:07PM 43.2531 -83.5706 88° East 469 540 39,000  Level Cleveland Center
09:08PM 43.2536 -83.3881 90° East 469 540 39,000  Level Cleveland Center
09:09PM 43.2556 -83.2114 89° East 469 540 39,000  Level Cleveland Center
09:10PM 43.2553 -83.0289 90° East 469 540 39,000  Level Cleveland Center
09:11PM 43.2547 -82.8550 90° East 469 540 39,000  Level Cleveland Center
09:12PM 43.2625 -82.6700 87° East 469 540 39,000  Level Cleveland Center
09:13PM 43.2667 -82.5000 88° East 480 552 39,000  Level Toronto Center
09:14PM 43.2833 -82.2833 84° East 480 552 39,000  Level Toronto Center
09:15PM 43.2833 -82.1333 90° East 480 552 39,000  Level Toronto Center
09:16PM 43.2833 -81.9167 90° East 480 552 39,000  Level Toronto Center
09:17PM 43.3000 -81.7667 81° East 480 552 39,000  Level Toronto Center
09:18PM 43.2833 -81.5833 97° East 480 552 39,000  Level Toronto Center
09:19PM 43.2833 -81.4000 90° East 480 552 39,000  Level Toronto Center
09:20PM 43.2833 -81.2167 90° East 480 552 39,000  Level Toronto Center
09:21PM 43.2833 -81.0333 90° East 470 541 39,000  Level Toronto Center
09:22PM 43.2833 -80.8500 90° East 470 541 39,000  Level Toronto Center
09:23PM 43.2833 -80.6667 90° East 470 541 39,000  Level Toronto Center
09:24PM 43.2833 -80.5000 90° East 470 541 39,000  Level Toronto Center
09:25PM 43.2833 -80.3167 90° East 470 541 39,000  Level Toronto Center
09:26PM 43.2833 -80.1333 90° East 470 541 39,000  Level Toronto Center
09:27PM 43.2833 -79.9500 90° East 470 541 39,000  Level Toronto Center
09:28PM 43.2667 -79.8000 99° East 470 541 39,000  Level Toronto Center
09:29PM 43.2667 -79.5833 90° East 470 541 39,000  Level Toronto Center
09:30PM 43.2667 -79.4333 90° East 470 541 39,000  Level Toronto Center
09:31PM 43.2667 -79.2500 90° East 470 541 39,000  Level Toronto Center
09:32PM 43.2500 -79.0667 97° East 470 541 39,000  Level Toronto Center
09:33PM 43.2500 -78.8833 90° East 470 541 39,000  Level Toronto Center
09:34PM 43.2500 -78.7167 90° East 470 541 39,000  Level Toronto Center
09:35PM 43.2500 -78.5167 90° East 470 541 39,000  Level Toronto Center
09:36PM 43.2333 -78.3500 98° East 470 541 39,000  Level Toronto Center
09:37PM 43.2333 -78.1667 90° East 470 541 39,000  Level Toronto Center
09:38PM 43.2167 -77.9833 97° East 460 529 39,000  Level Toronto Center
09:39PM 43.2167 -77.8333 90° East 460 529 39,000  Level Toronto Center
09:40PM 43.2167 -77.6500 90° East 460 529 39,000  Level Toronto Center
09:41PM 43.2167 -77.4833 90° East 460 529 39,000  Level Toronto Center
09:42PM 43.2000 -77.3000 97° East 460 529 39,000  Level Toronto Center
09:44PM 43.2000 -76.9333 90° East 460 529 39,000  Level Toronto Center
09:45PM 43.2167 -76.7667 82° East 460 529 39,000  Level Toronto Center
09:46PM 43.2167 -76.5833 90° East 460 529 39,000 -360 Level Toronto Center
09:47PM 43.2333 -76.4333 81° East 460 529 38,300 -1,200 Descending Toronto Center
09:48PM 43.2500 -76.2500 83° East 460 529 36,700 -1,440 Descending Toronto Center
09:48PM 43.2708 -76.2358 26° Northeast 463 533 36,400 -1,440 Descending Boston Center
09:49PM 43.2828 -76.0625 85° East 458 527 34,800 -1,560 Descending Boston Center
09:50PM 43.2944 -75.8864 85° East 458 527 33,300 -1,500 Descending Boston Center
09:51PM 43.3081 -75.7158 84° East 458 527 31,800 -1,560 Descending Boston Center
09:52PM 43.3192 -75.5394 85° East 458 527 30,200 -1,560 Descending Boston Center
09:53PM 43.3300 -75.3631 85° East 458 527 28,700 -1,560 Descending Boston Center
09:54PM 43.3411 -75.1636 86° East 458 527 27,100 -1,560 Descending Boston Center
09:55PM 43.3533 -74.9958 84° East 465 535 25,600 -1,500 Descending Boston Center
09:56PM 43.3633 -74.8306 85° East 452 520 24,100 -1,500 Descending Boston Center
09:57PM 43.3706 -74.6708 86° East 433 498 22,700 -1,440 Descending Boston Center
09:58PM 43.3819 -74.5169 84° East 417 480 21,300 -900 Descending Boston Center
09:59PM 43.3886 -74.3658 86° East 405 466 21,000 -180 Descending Boston Center
10:00PM 43.3953 -74.2117 87° East 400 460 21,000  Level Boston Center
10:01PM 43.4039 -74.0575 86° East 406 467 21,000  Level Boston Center
10:02PM 43.4142 -73.9036 85° East 406 467 21,000 -480 Level Boston Center
10:03PM 43.4203 -73.7492 87° East 406 467 20,100 -1,500 Descending Boston Center
10:04PM 43.4281 -73.6036 86° East 394 453 18,100 -1,980 Descending Boston Center
10:05PM 43.4358 -73.4636 86° East 381 438 16,200 -1,800 Descending Boston Center
10:06PM 43.4431 -73.3353 86° East 354 407 14,500 -1,680 Descending Boston Center
10:07PM 43.4503 -73.2150 85° East 333 383 12,900 -1,500 Descending Boston Center
10:08PM 43.4508 -73.1150 90° East 290 334 11,600 -1,260 Descending Boston Center
10:09PM 43.4575 -73.0264 84° East 255 293 10,400 -1,200 Descending Boston Center
10:10PM 43.4600 -72.9436 88° East 243 280 9,300 -1,200 Descending Boston Center
10:11PM 43.4647 -72.8547 86° East 236 272 8,100 -1,200 Descending Boston Center